Time;durP1;ratioP1;P1;durP2;ratioP2;P2;SDS_P1;SDS_P2;PMS_P1;PMS_P2;Temp;Humidity;BMP_temperature;BMP_pressure;BME280_temperature;BME280_humidity;BME280_pressure;Samples;Min_cycle;Max_cycle;Signal;HPM_P1;HPM_P2
2023/03/26 00:02:18;;;;;;;4.13;1.63;;;;;;;;;;5030664;28;20112;-75
2023/03/26 00:05:04;;;;;;;5.15;1.55;;;;;;;;;;5022765;28;20459;-75
2023/03/26 00:07:50;;;;;;;5.28;2.10;;;;;;;;;;5030679;28;20029;-75
2023/03/26 00:10:36;;;;;;;3.42;1.58;;;;;;;;;;5042892;28;20512;-68
2023/03/26 00:13:21;;;;;;;3.63;1.40;;;;;;;;;;5040970;28;20029;-68
2023/03/26 00:16:07;;;;;;;4.93;1.67;;;;;;;;;;5016191;28;20033;-69
2023/03/26 00:18:52;;;;;;;3.47;1.75;;;;;;;;;;5037594;28;20020;-68
2023/03/26 00:21:37;;;;;;;7.55;3.00;;;;;;;;;;5029622;28;20117;-70
2023/03/26 00:24:28;;;;;;;3.80;2.10;;;;;;;;;;5029579;28;20033;-70
2023/03/26 00:27:13;;;;;;;4.18;1.83;;;;;;;;;;5043368;28;20021;-71
2023/03/26 00:29:59;;;;;;;4.18;2.83;;;;;;;;;;5015705;28;20459;-68
2023/03/26 00:32:45;;;;;;;4.60;1.75;;;;;;;;;;5043019;28;20103;-68
2023/03/26 00:35:30;;;;;;;7.30;1.40;;;;;;;;;;5020751;28;20021;-69
2023/03/26 00:38:16;;;;;;;3.47;1.35;;;;;;;;;;5029230;28;20152;-70
2023/03/26 00:41:04;;;;;;;5.13;1.35;;;;;;;;;;5032120;28;20033;-69
2023/03/26 00:43:55;;;;;;;5.45;1.92;;;;;;;;;;5043092;28;20025;-71
2023/03/26 00:46:41;;;;;;;4.18;1.33;;;;;;;;;;5028785;28;20029;-75
2023/03/26 00:49:29;;;;;;;3.47;1.10;;;;;;;;;;5034341;28;20053;-76
2023/03/26 00:52:17;;;;;;;4.40;1.30;;;;;;;;;;5026907;28;20018;-76
2023/03/26 00:55:02;;;;;;;5.82;1.20;;;;;;;;;;5029239;28;20099;-78
2023/03/26 00:57:48;;;;;;;3.05;2.58;;;;;;;;;;5018112;28;20068;-75
2023/03/26 01:00:34;;;;;;;4.57;2.03;;;;;;;;;;5027111;28;20013;-74
2023/03/26 01:03:20;;;;;;;3.22;1.83;;;;;;;;;;5028989;28;20087;-69
2023/03/26 01:06:14;;;;;;;3.28;1.55;;;;;;;;;;5002397;28;20017;-74
2023/03/26 01:09:12;;;;;;;4.28;1.75;;;;;;;;;;5042731;28;20441;-74
2023/03/26 01:11:59;;;;;;;1.63;1.27;;;;;;;;;;5053789;28;20395;-74
2023/03/26 01:14:49;;;;;;;7.03;1.50;;;;;;;;;;5014173;28;20510;-75
2023/03/26 01:17:36;;;;;;;4.28;1.73;;;;;;;;;;5028611;28;20397;-74
2023/03/26 01:20:25;;;;;;;3.78;1.40;;;;;;;;;;5028675;28;20021;-74
2023/03/26 01:23:10;;;;;;;8.70;3.03;;;;;;;;;;5028348;28;20029;-75
2023/03/26 01:26:00;;;;;;;2.58;1.52;;;;;;;;;;5042308;28;20392;-72
2023/03/26 01:28:47;;;;;;;4.43;1.27;;;;;;;;;;5042200;28;20033;-72
2023/03/26 01:31:38;;;;;;;4.82;1.65;;;;;;;;;;5042116;28;20132;-71
2023/03/26 01:34:29;;;;;;;3.28;1.60;;;;;;;;;;5027988;28;20031;-73
2023/03/26 01:37:26;;;;;;;10.75;1.73;;;;;;;;;;5028146;28;20025;-71
2023/03/26 01:40:17;;;;;;;4.13;1.13;;;;;;;;;;5016014;28;20559;-70
2023/03/26 01:43:07;;;;;;;3.38;1.63;;;;;;;;;;5016575;28;20208;-74
2023/03/26 01:45:53;;;;;;;3.25;1.83;;;;;;;;;;5014273;28;20022;-75
2023/03/26 01:48:42;;;;;;;3.13;1.23;;;;;;;;;;5025760;28;20129;-72
2023/03/26 01:51:32;;;;;;;5.45;1.67;;;;;;;;;;5016725;28;20056;-74
2023/03/26 01:54:23;;;;;;;3.47;1.23;;;;;;;;;;5041748;28;20504;-73
2023/03/26 01:57:19;;;;;;;1.92;0.90;;;;;;;;;;5042164;28;20086;-67
2023/03/26 02:00:16;;;;;;;5.72;2.65;;;;;;;;;;5041540;28;20109;-72
2023/03/26 02:03:21;;;;;;;6.00;1.42;;;;;;;;;;5027717;28;20029;-70
2023/03/26 02:06:14;;;;;;;4.65;1.23;;;;;;;;;;5027934;28;20033;-69
2023/03/26 02:09:03;;;;;;;1.60;1.50;;;;;;;;;;5027633;28;20040;-67
2023/03/26 02:11:49;;;;;;;2.60;1.67;;;;;;;;;;5034325;28;20562;-68
2023/03/26 02:14:34;;;;;;;5.68;1.65;;;;;;;;;;5028193;28;20116;-70
2023/03/26 02:17:22;;;;;;;2.55;1.23;;;;;;;;;;5041429;28;20037;-67
2023/03/26 02:20:09;;;;;;;5.28;1.60;;;;;;;;;;5017435;28;20160;-69
2023/03/26 02:22:55;;;;;;;3.33;1.20;;;;;;;;;;5041779;28;20048;-72
2023/03/26 02:25:42;;;;;;;4.55;1.58;;;;;;;;;;5037384;28;20021;-69
2023/03/26 02:28:27;;;;;;;9.68;1.95;;;;;;;;;;5023055;28;20021;-70
2023/03/26 02:31:15;;;;;;;9.88;1.55;;;;;;;;;;5027999;28;20033;-69
2023/03/26 02:34:01;;;;;;;5.60;1.45;;;;;;;;;;5041356;28;20099;-73
2023/03/26 02:36:46;;;;;;;2.45;1.10;;;;;;;;;;5031314;28;20040;-66
2023/03/26 02:39:32;;;;;;;4.97;1.30;;;;;;;;;;5031630;28;20036;-72
2023/03/26 02:42:17;;;;;;;4.22;1.42;;;;;;;;;;5029919;28;20031;-73
2023/03/26 02:45:02;;;;;;;6.43;1.45;;;;;;;;;;5031271;28;20117;-72
2023/03/26 02:47:49;;;;;;;5.85;1.35;;;;;;;;;;5030800;28;20538;-72
2023/03/26 02:50:35;;;;;;;4.20;1.60;;;;;;;;;;5031287;28;20034;-72
2023/03/26 02:53:22;;;;;;;7.57;1.15;;;;;;;;;;5033029;28;20036;-70
2023/03/26 02:56:08;;;;;;;4.45;1.40;;;;;;;;;;5031176;28;20029;-67
2023/03/26 02:58:53;;;;;;;5.53;1.63;;;;;;;;;;5030858;28;20488;-68
2023/03/26 03:01:41;;;;;;;5.70;1.80;;;;;;;;;;5030956;28;20022;-68
2023/03/26 03:04:26;;;;;;;5.93;2.15;;;;;;;;;;5016986;28;20029;-68
2023/03/26 03:07:13;;;;;;;4.47;1.27;;;;;;;;;;5044882;28;20030;-67
2023/03/26 03:10:01;;;;;;;7.03;1.13;;;;;;;;;;5030654;28;20036;-66
2023/03/26 03:12:46;;;;;;;2.38;1.10;;;;;;;;;;5049325;28;20116;-74
2023/03/26 03:15:32;;;;;;;5.00;1.20;;;;;;;;;;5033155;28;20037;-66
2023/03/26 03:18:17;;;;;;;5.70;1.30;;;;;;;;;;5031244;28;20075;-67
2023/03/26 03:21:03;;;;;;;5.20;1.60;;;;;;;;;;5022542;28;20041;-66
2023/03/26 03:23:48;;;;;;;6.50;2.25;;;;;;;;;;5030766;28;20114;-67
2023/03/26 03:26:35;;;;;;;3.40;1.67;;;;;;;;;;5030460;28;20061;-67
2023/03/26 03:29:20;;;;;;;3.85;1.10;;;;;;;;;;5044445;28;20033;-73
2023/03/26 03:32:05;;;;;;;4.30;1.20;;;;;;;;;;5030366;28;20044;-75
2023/03/26 03:34:51;;;;;;;6.60;1.48;;;;;;;;;;5030392;28;20473;-74
2023/03/26 03:37:36;;;;;;;5.60;1.02;;;;;;;;;;5005162;28;20034;-73
2023/03/26 03:40:21;;;;;;;4.65;1.45;;;;;;;;;;5043991;28;20488;-75
2023/03/26 03:43:06;;;;;;;5.07;1.38;;;;;;;;;;5044343;28;20060;-75
2023/03/26 03:45:51;;;;;;;4.10;1.25;;;;;;;;;;5043618;28;20381;-73
2023/03/26 03:48:37;;;;;;;2.72;1.05;;;;;;;;;;5028920;28;20057;-67
2023/03/26 03:51:23;;;;;;;5.95;1.38;;;;;;;;;;5043787;28;20063;-74
2023/03/26 03:54:08;;;;;;;4.88;1.45;;;;;;;;;;5030128;28;20380;-75
2023/03/26 03:56:54;;;;;;;2.22;1.13;;;;;;;;;;5030039;28;20101;-74
2023/03/26 03:59:39;;;;;;;6.13;2.20;;;;;;;;;;5043825;28;20019;-72
2023/03/26 04:02:33;;;;;;;4.70;0.90;;;;;;;;;;5043358;28;20476;-72
2023/03/26 04:05:19;;;;;;;6.43;2.35;;;;;;;;;;5017556;28;20025;-73
2023/03/26 04:08:04;;;;;;;10.90;1.92;;;;;;;;;;5009862;28;20071;-70
2023/03/26 04:10:50;;;;;;;4.38;1.63;;;;;;;;;;5017909;28;20696;-68
2023/03/26 04:13:36;;;;;;;6.05;1.92;;;;;;;;;;5020309;28;20442;-70
2023/03/26 04:16:21;;;;;;;7.60;1.70;;;;;;;;;;5020566;28;20480;-68
2023/03/26 04:19:07;;;;;;;5.10;1.63;;;;;;;;;;5044144;28;20147;-70
2023/03/26 04:21:53;;;;;;;5.55;1.70;;;;;;;;;;5029982;28;20017;-70
2023/03/26 04:24:39;;;;;;;3.90;1.38;;;;;;;;;;5029592;28;20108;-68
2023/03/26 04:27:26;;;;;;;7.57;2.00;;;;;;;;;;5029571;28;20568;-69
2023/03/26 04:30:14;;;;;;;5.45;1.70;;;;;;;;;;5029282;28;20037;-70
2023/03/26 04:33:02;;;;;;;2.88;1.20;;;;;;;;;;5029322;28;20052;-70
2023/03/26 04:35:48;;;;;;;4.97;2.03;;;;;;;;;;5029243;28;20072;-70
2023/03/26 04:38:37;;;;;;;2.95;1.50;;;;;;;;;;5028916;28;20061;-69
2023/03/26 04:41:25;;;;;;;;;;;;;;;;;;5035973;28;20025;-70
2023/03/26 04:44:10;;;;;;;5.10;1.80;;;;;;;;;;5015205;28;19984;-68
2023/03/26 04:46:55;;;;;;;7.00;1.90;;;;;;;;;;5028930;28;20117;-71
2023/03/26 04:49:41;;;;;;;5.63;1.63;;;;;;;;;;5041485;28;20064;-71
2023/03/26 04:52:26;;;;;;;4.63;2.10;;;;;;;;;;5028731;28;20365;-71
2023/03/26 04:55:32;;;;;;;4.95;1.55;;;;;;;;;;5042699;28;20029;-72
2023/03/26 04:58:18;;;;;;;5.13;1.35;;;;;;;;;;5028047;28;20144;-72
2023/03/26 05:01:04;;;;;;;6.13;1.60;;;;;;;;;;5027804;28;20029;-72
2023/03/26 05:03:49;;;;;;;6.53;1.80;;;;;;;;;;5027393;28;20480;-73
2023/03/26 05:06:36;;;;;;;7.50;1.40;;;;;;;;;;5027674;28;20084;-73
2023/03/26 05:09:22;;;;;;;9.57;1.88;;;;;;;;;;5028997;28;20120;-73
2023/03/26 05:12:07;;;;;;;6.35;1.85;;;;;;;;;;5032833;28;20029;-73
2023/03/26 05:14:53;;;;;;;4.32;1.45;;;;;;;;;;5026708;28;20029;-74
2023/03/26 05:17:40;;;;;;;4.57;1.48;;;;;;;;;;5042585;28;20033;-73
2023/03/26 05:20:26;;;;;;;3.42;1.50;;;;;;;;;;5028466;28;20046;-66
2023/03/26 05:23:11;;;;;;;5.05;1.70;;;;;;;;;;5028453;28;20022;-74
2023/03/26 05:25:56;;;;;;;9.90;2.45;;;;;;;;;;5042267;28;20029;-73
2023/03/26 05:28:42;;;;;;;9.13;2.45;;;;;;;;;;5028219;28;20096;-74
2023/03/26 05:31:29;;;;;;;6.05;1.40;;;;;;;;;;5014446;28;20036;-75
2023/03/26 05:34:14;;;;;;;9.07;3.25;;;;;;;;;;5041570;28;20472;-74
2023/03/26 05:37:02;;;;;;;8.90;1.75;;;;;;;;;;5028035;28;20039;-73
2023/03/26 05:39:51;;;;;;;4.22;1.40;;;;;;;;;;5042304;28;20057;-69
2023/03/26 05:42:36;;;;;;;4.27;1.20;;;;;;;;;;5037737;28;20033;-65
2023/03/26 05:45:21;;;;;;;5.43;1.58;;;;;;;;;;5027903;28;20013;-67
2023/03/26 05:48:07;;;;;;;7.05;2.33;;;;;;;;;;5027925;28;20049;-66
2023/03/26 05:50:53;;;;;;;4.57;2.03;;;;;;;;;;5040650;28;20483;-66
2023/03/26 05:53:38;;;;;;;6.38;1.77;;;;;;;;;;5042026;28;20427;-65
2023/03/26 05:56:23;;;;;;;4.78;1.50;;;;;;;;;;5027715;28;20048;-73
2023/03/26 05:59:09;;;;;;;7.63;1.50;;;;;;;;;;5028152;28;20045;-65
2023/03/26 06:01:54;;;;;;;6.05;1.60;;;;;;;;;;5028030;28;20065;-72
2023/03/26 06:04:41;;;;;;;4.80;1.65;;;;;;;;;;5027941;28;20416;-73
2023/03/26 06:07:27;;;;;;;8.32;1.40;;;;;;;;;;5042069;28;20155;-74
2023/03/26 06:10:12;;;;;;;9.15;1.63;;;;;;;;;;5044814;28;20031;-74
2023/03/26 06:12:57;;;;;;;8.02;2.03;;;;;;;;;;5036212;28;20025;-73
2023/03/26 06:15:42;;;;;;;5.32;1.67;;;;;;;;;;5046077;28;20021;-71
2023/03/26 06:18:27;;;;;;;8.05;2.20;;;;;;;;;;5032256;28;20495;-74
2023/03/26 06:21:13;;;;;;;5.80;1.60;;;;;;;;;;5032385;28;20014;-73
2023/03/26 06:23:58;;;;;;;5.85;2.15;;;;;;;;;;5031805;28;20036;-76
2023/03/26 06:26:43;;;;;;;4.22;1.80;;;;;;;;;;5017842;28;20477;-74
2023/03/26 06:29:29;;;;;;;4.88;1.63;;;;;;;;;;5031974;28;20064;-72
2023/03/26 06:32:14;;;;;;;13.02;2.25;;;;;;;;;;5031694;28;20056;-72
2023/03/26 06:34:59;;;;;;;6.38;1.80;;;;;;;;;;5045198;28;20349;-69
2023/03/26 06:37:45;;;;;;;5.82;1.77;;;;;;;;;;5011875;28;20037;-71
2023/03/26 06:40:31;;;;;;;8.55;2.33;;;;;;;;;;5031441;28;20025;-70
2023/03/26 06:43:16;;;;;;;6.22;1.55;;;;;;;;;;5038264;28;20029;-70
2023/03/26 06:46:01;;;;;;;5.75;1.80;;;;;;;;;;5017565;28;20499;-73
2023/03/26 06:48:47;;;;;;;10.10;1.95;;;;;;;;;;5044752;28;20053;-71
2023/03/26 06:51:32;;;;;;;4.32;1.80;;;;;;;;;;5021770;28;20032;-74
2023/03/26 06:54:17;;;;;;;4.80;1.80;;;;;;;;;;5031140;28;20029;-73
2023/03/26 06:57:03;;;;;;;8.30;2.28;;;;;;;;;;5031307;28;20172;-73
2023/03/26 06:59:48;;;;;;;6.93;2.28;;;;;;;;;;5030767;28;20111;-74
2023/03/26 07:02:34;;;;;;;6.88;2.10;;;;;;;;;;5030157;28;20029;-75
2023/03/26 07:05:19;;;;;;;7.75;2.90;;;;;;;;;;5030456;28;20014;-73
2023/03/26 07:08:05;;;;;;;4.22;1.60;;;;;;;;;;5045021;28;20134;-73
2023/03/26 07:10:50;;;;;;;9.25;1.98;;;;;;;;;;5045901;28;20083;-77
2023/03/26 07:13:36;;;;;;;5.43;2.22;;;;;;;;;;5021419;28;20024;-73
2023/03/26 07:16:21;;;;;;;5.28;1.88;;;;;;;;;;5035897;28;20064;-72
2023/03/26 07:19:07;;;;;;;8.98;2.15;;;;;;;;;;5031735;28;20029;-72
2023/03/26 07:21:52;;;;;;;6.50;1.95;;;;;;;;;;5029855;28;20088;-73
2023/03/26 07:24:37;;;;;;;7.68;1.90;;;;;;;;;;5044652;28;20044;-74
2023/03/26 07:27:32;;;;;;;5.40;1.75;;;;;;;;;;5026571;28;20037;-74
2023/03/26 07:30:31;;;;;;;9.68;2.38;;;;;;;;;;5030421;28;20036;-67
2023/03/26 07:33:30;;;;;;;3.75;1.77;;;;;;;;;;5030469;28;20037;-70
2023/03/26 07:36:24;;;;;;;4.70;1.70;;;;;;;;;;5030580;28;20037;-71
2023/03/26 07:39:13;;;;;;;8.25;1.90;;;;;;;;;;5044438;28;20036;-70
2023/03/26 07:42:14;;;;;;;6.93;2.33;;;;;;;;;;5039285;28;20479;-70
2023/03/26 07:45:05;;;;;;;3.85;1.35;;;;;;;;;;5010448;28;20091;-70
2023/03/26 07:47:52;;;;;;;7.43;2.53;;;;;;;;;;5018110;28;20542;-69
2023/03/26 07:50:37;;;;;;;7.00;1.75;;;;;;;;;;5029939;28;20053;-72
2023/03/26 07:53:23;;;;;;;5.45;2.15;;;;;;;;;;5029967;28;20514;-73
2023/03/26 07:56:14;;;;;;;7.57;2.00;;;;;;;;;;5030794;28;20049;-73
2023/03/26 07:59:12;;;;;;;6.70;2.45;;;;;;;;;;5010431;28;20054;-72
2023/03/26 08:02:20;;;;;;;9.43;1.80;;;;;;;;;;5018661;28;20125;-73
2023/03/26 08:05:18;;;;;;;6.72;2.10;;;;;;;;;;5043839;28;20592;-69
2023/03/26 08:08:12;;;;;;;8.80;2.22;;;;;;;;;;5029482;28;20480;-67
2023/03/26 08:11:00;;;;;;;6.68;2.83;;;;;;;;;;5046622;28;20025;-71
2023/03/26 08:14:05;;;;;;;5.47;2.33;;;;;;;;;;5035655;28;20070;-72
2023/03/26 08:16:53;;;;;;;7.50;2.78;;;;;;;;;;5030571;28;20018;-69
2023/03/26 08:19:57;;;;;;;7.50;2.28;;;;;;;;;;5030073;28;20056;-74
2023/03/26 08:22:49;;;;;;;7.35;2.20;;;;;;;;;;5029559;28;20033;-72
2023/03/26 08:25:43;;;;;;;7.50;2.00;;;;;;;;;;5016818;28;20021;-73
2023/03/26 08:28:38;;;;;;;6.95;2.00;;;;;;;;;;5029473;28;20037;-67
2023/03/26 08:31:31;;;;;;;10.15;2.65;;;;;;;;;;5029312;28;20044;-67
2023/03/26 08:34:16;;;;;;;10.73;3.00;;;;;;;;;;5029166;28;20037;-69
2023/03/26 08:37:03;;;;;;;8.95;2.38;;;;;;;;;;5029167;28;20048;-68
2023/03/26 08:39:48;;;;;;;6.45;2.67;;;;;;;;;;5029433;28;20166;-68
2023/03/26 08:42:33;;;;;;;7.55;2.38;;;;;;;;;;5052515;28;20017;-70
2023/03/26 08:45:25;;;;;;;9.82;3.35;;;;;;;;;;5029230;28;20031;-68
2023/03/26 08:48:32;;;;;;;5.28;1.73;;;;;;;;;;5027490;28;20377;-66
2023/03/26 08:51:26;;;;;;;6.30;2.17;;;;;;;;;;5041332;28;20041;-69
2023/03/26 08:54:27;;;;;;;7.45;2.30;;;;;;;;;;5042821;28;20037;-69
2023/03/26 08:57:15;;;;;;;8.25;2.00;;;;;;;;;;5028960;28;20028;-67
2023/03/26 09:00:19;;;;;;;6.80;2.17;;;;;;;;;;5029242;28;20389;-66
2023/03/26 09:03:24;;;;;;;4.78;2.22;;;;;;;;;;5028927;28;20106;-77
2023/03/26 09:06:48;;;;;;;7.78;2.47;;;;;;;;;;5028432;28;20037;-68
2023/03/26 09:09:52;;;;;;;4.63;1.80;;;;;;;;;;4941442;28;20019;-69
2023/03/26 09:12:37;;;;;;;8.80;2.22;;;;;;;;;;4968030;28;20026;-67
2023/03/26 09:15:32;;;;;;;9.23;2.10;;;;;;;;;;5039820;28;20120;-68
2023/03/26 09:18:17;;;;;;;4.63;2.15;;;;;;;;;;5043080;28;20219;-67
2023/03/26 09:21:11;;;;;;;6.53;2.13;;;;;;;;;;5020411;28;20025;-73
2023/03/26 09:24:02;;;;;;;7.00;1.98;;;;;;;;;;5028685;28;20025;-80
2023/03/26 09:27:07;;;;;;;4.05;1.67;;;;;;;;;;5011718;28;20022;-79
2023/03/26 09:29:52;;;;;;;3.63;1.75;;;;;;;;;;5028650;28;20022;-78
2023/03/26 09:32:56;;;;;;;4.93;1.60;;;;;;;;;;5008829;28;20033;-78
2023/03/26 09:35:44;;;;;;;2.92;1.30;;;;;;;;;;5010931;28;20017;-78
2023/03/26 09:38:30;;;;;;;4.57;1.40;;;;;;;;;;5027863;28;20496;-71
2023/03/26 09:41:18;;;;;;;2.70;1.05;;;;;;;;;;5033500;28;20116;-68
2023/03/26 09:44:22;;;;;;;3.38;1.30;;;;;;;;;;5014770;28;20025;-68
2023/03/26 09:47:26;;;;;;;5.63;2.28;;;;;;;;;;5028076;28;20048;-67
2023/03/26 09:50:34;;;;;;;9.88;1.27;;;;;;;;;;5027067;28;20045;-66
2023/03/26 09:53:31;;;;;;;3.53;1.25;;;;;;;;;;5014333;28;20120;-67
2023/03/26 09:56:27;;;;;;;4.65;1.67;;;;;;;;;;5011915;28;20017;-73
2023/03/26 09:59:33;;;;;;;4.35;1.35;;;;;;;;;;5041951;28;20080;-68
2023/03/26 10:02:37;;;;;;;2.53;1.25;;;;;;;;;;5005599;28;20033;-69
2023/03/26 10:05:29;;;;;;;4.57;1.27;;;;;;;;;;5027846;28;20661;-68
2023/03/26 10:08:27;;;;;;;2.85;1.35;;;;;;;;;;5027780;28;20013;-70
2023/03/26 10:11:32;;;;;;;3.20;1.30;;;;;;;;;;5030480;28;20037;-67
2023/03/26 10:14:36;;;;;;;3.38;1.40;;;;;;;;;;5037093;28;20037;-70
2023/03/26 10:17:35;;;;;;;4.10;1.60;;;;;;;;;;5013908;28;20048;-66
2023/03/26 10:20:29;;;;;;;3.75;1.30;;;;;;;;;;5013590;28;20037;-65
2023/03/26 10:23:25;;;;;;;2.15;1.05;;;;;;;;;;5027875;28;20124;-67
2023/03/26 10:26:20;;;;;;;2.25;0.90;;;;;;;;;;5041690;28;20025;-68
2023/03/26 10:29:05;;;;;;;3.38;1.10;;;;;;;;;;5027582;28;20497;-67
2023/03/26 10:31:56;;;;;;;3.33;1.20;;;;;;;;;;5027493;28;20037;-66
2023/03/26 10:34:54;;;;;;;1.17;1.00;;;;;;;;;;5013640;28;20379;-69
2023/03/26 10:37:46;;;;;;;3.08;1.10;;;;;;;;;;5019343;28;20022;-70
2023/03/26 10:40:35;;;;;;;4.20;1.00;;;;;;;;;;5040285;28;20112;-69
2023/03/26 10:43:32;;;;;;;2.28;1.00;;;;;;;;;;5026552;28;20045;-68
2023/03/26 10:46:20;;;;;;;3.17;1.00;;;;;;;;;;5023675;28;20041;-68
2023/03/26 10:49:12;;;;;;;0.93;0.80;;;;;;;;;;5024064;28;20111;-69
2023/03/26 10:51:58;;;;;;;1.70;0.98;;;;;;;;;;5026782;28;20033;-67
2023/03/26 10:54:43;;;;;;;3.15;1.23;;;;;;;;;;5027240;28;20033;-69
2023/03/26 10:57:49;;;;;;;2.60;1.40;;;;;;;;;;5030340;28;20112;-69
2023/03/26 11:00:37;;;;;;;1.52;0.85;;;;;;;;;;5022251;28;20030;-69
2023/03/26 11:03:42;;;;;;;2.70;1.15;;;;;;;;;;5044698;28;20120;-69
2023/03/26 11:06:38;;;;;;;1.15;0.70;;;;;;;;;;5030466;28;20618;-70
2023/03/26 11:09:29;;;;;;;0.95;0.70;;;;;;;;;;5045045;28;20033;-71
2023/03/26 11:12:21;;;;;;;1.85;1.42;;;;;;;;;;5034814;28;20088;-75
2023/03/26 11:15:06;;;;;;;2.78;0.93;;;;;;;;;;5042774;28;20104;-75
2023/03/26 11:18:03;;;;;;;1.23;0.80;;;;;;;;;;5031099;28;20021;-75
2023/03/26 11:20:54;;;;;;;3.00;1.00;;;;;;;;;;5016186;28;20544;-75
2023/03/26 11:23:42;;;;;;;1.80;1.00;;;;;;;;;;5030928;28;20033;-76
2023/03/26 11:26:42;;;;;;;1.65;0.80;;;;;;;;;;5030686;28;20195;-77
2023/03/26 11:29:46;;;;;;;2.28;0.70;;;;;;;;;;5030817;28;20018;-69
2023/03/26 11:32:38;;;;;;;2.00;0.90;;;;;;;;;;5030336;28;20037;-76
2023/03/26 11:35:31;;;;;;;1.48;0.80;;;;;;;;;;5016321;28;20029;-75
2023/03/26 11:38:20;;;;;;;2.47;1.00;;;;;;;;;;5016818;28;20109;-76
2023/03/26 11:41:17;;;;;;;1.92;0.90;;;;;;;;;;5034272;28;20074;-76
2023/03/26 11:44:06;;;;;;;3.50;1.20;;;;;;;;;;5030827;28;20463;-76
2023/03/26 11:46:57;;;;;;;1.75;1.20;;;;;;;;;;5029792;28;20037;-71
2023/03/26 11:49:44;;;;;;;1.20;0.85;;;;;;;;;;5028707;28;20045;-70
2023/03/26 11:52:30;;;;;;;2.25;0.90;;;;;;;;;;5029608;28;20510;-69
2023/03/26 11:55:15;;;;;;;2.67;1.30;;;;;;;;;;5044194;28;20049;-69
2023/03/26 11:58:03;;;;;;;1.88;1.25;;;;;;;;;;5043823;28;20112;-69
2023/03/26 12:00:51;;;;;;;4.03;1.00;;;;;;;;;;5043501;28;20425;-69
2023/03/26 12:03:37;;;;;;;3.00;1.10;;;;;;;;;;5043634;28;20024;-69
2023/03/26 12:06:27;;;;;;;1.48;0.80;;;;;;;;;;5043229;28;20112;-71
2023/03/26 12:09:17;;;;;;;2.55;0.90;;;;;;;;;;5029859;28;20025;-71
2023/03/26 12:12:03;;;;;;;3.70;1.33;;;;;;;;;;5033750;28;20516;-73
2023/03/26 12:14:48;;;;;;;3.17;1.20;;;;;;;;;;5041471;28;20052;-74
2023/03/26 12:17:35;;;;;;;2.13;1.00;;;;;;;;;;5043613;28;20025;-72
2023/03/26 12:20:31;;;;;;;2.80;0.90;;;;;;;;;;5029072;28;20026;-71
2023/03/26 12:23:33;;;;;;;2.47;1.17;;;;;;;;;;5029676;28;20025;-68
2023/03/26 12:26:20;;;;;;;2.22;1.30;;;;;;;;;;5029278;28;20032;-68
2023/03/26 12:29:07;;;;;;;3.97;1.17;;;;;;;;;;5029235;28;20032;-67
2023/03/26 12:31:52;;;;;;;4.00;1.10;;;;;;;;;;5028841;28;20029;-68
2023/03/26 12:34:38;;;;;;;3.80;1.00;;;;;;;;;;5029060;28;20094;-68
2023/03/26 12:37:34;;;;;;;3.85;1.27;;;;;;;;;;5015584;28;20022;-68
2023/03/26 12:40:29;;;;;;;3.38;1.42;;;;;;;;;;5042941;28;20036;-66
2023/03/26 12:43:23;;;;;;;2.60;1.25;;;;;;;;;;5029215;28;20033;-79
2023/03/26 12:46:17;;;;;;;2.45;1.17;;;;;;;;;;5029117;28;20079;-67
2023/03/26 12:49:05;;;;;;;2.88;0.95;;;;;;;;;;5027553;28;20567;-67
2023/03/26 12:51:55;;;;;;;4.93;1.60;;;;;;;;;;5028618;28;20060;-68
2023/03/26 12:54:47;;;;;;;1.92;1.00;;;;;;;;;;5028597;28;20036;-68
2023/03/26 12:57:37;;;;;;;2.13;0.90;;;;;;;;;;5042807;28;20111;-66
2023/03/26 13:00:32;;;;;;;3.20;1.25;;;;;;;;;;5028350;28;20534;-73
2023/03/26 13:03:18;;;;;;;1.70;0.93;;;;;;;;;;5014901;28;20048;-69
2023/03/26 13:06:29;;;;;;;5.20;1.40;;;;;;;;;;5028380;28;20033;-70
2023/03/26 13:09:34;;;;;;;3.30;1.08;;;;;;;;;;5042666;28;20033;-69
2023/03/26 13:12:44;;;;;;;3.38;1.35;;;;;;;;;;5006234;28;20424;-69
2023/03/26 13:15:35;;;;;;;3.50;0.98;;;;;;;;;;5030522;28;20104;-69
2023/03/26 13:18:30;;;;;;;3.35;1.20;;;;;;;;;;5028681;28;20028;-74
2023/03/26 13:21:21;;;;;;;5.00;1.38;;;;;;;;;;5021673;28;20025;-75
2023/03/26 13:24:12;;;;;;;3.00;1.30;;;;;;;;;;5042417;28;20025;-74
2023/03/26 13:27:03;;;;;;;2.13;1.05;;;;;;;;;;5028179;28;20052;-77
2023/03/26 13:30:09;;;;;;;0.80;0.80;;;;;;;;;;5027982;28;20025;-77
2023/03/26 13:33:19;;;;;;;2.45;1.15;;;;;;;;;;5027963;28;20053;-76
2023/03/26 13:36:11;;;;;;;3.92;1.27;;;;;;;;;;5026441;28;20087;-76
2023/03/26 13:39:06;;;;;;;1.38;0.93;;;;;;;;;;5013101;28;20040;-67
2023/03/26 13:42:06;;;;;;;2.78;1.35;;;;;;;;;;5037264;28;20017;-69
2023/03/26 13:45:01;;;;;;;1.73;1.00;;;;;;;;;;5028077;28;20022;-69
2023/03/26 13:47:48;;;;;;;1.27;1.05;;;;;;;;;;5027488;28;20714;-69
2023/03/26 13:50:36;;;;;;;3.35;1.45;;;;;;;;;;5025809;28;20112;-69
2023/03/26 13:53:25;;;;;;;3.38;1.10;;;;;;;;;;5001780;28;20052;-67
2023/03/26 13:56:14;;;;;;;3.20;1.13;;;;;;;;;;5027459;28;20017;-77
2023/03/26 13:59:02;;;;;;;2.30;1.03;;;;;;;;;;5041890;28;20079;-71
2023/03/26 14:01:52;;;;;;;2.20;0.88;;;;;;;;;;5027807;28;20339;-70
2023/03/26 14:04:39;;;;;;;3.38;0.90;;;;;;;;;;5027478;28;20029;-69
2023/03/26 14:07:27;;;;;;;2.08;0.90;;;;;;;;;;5027913;28;20052;-70
2023/03/26 14:10:18;;;;;;;4.47;1.17;;;;;;;;;;5027907;28;20026;-70
2023/03/26 14:13:08;;;;;;;2.53;1.10;;;;;;;;;;5031908;28;20032;-70
2023/03/26 14:15:56;;;;;;;4.72;1.10;;;;;;;;;;5014259;28;20388;-69
2023/03/26 14:18:55;;;;;;;5.88;1.50;;;;;;;;;;5028629;28;20078;-70
2023/03/26 14:21:55;;;;;;;2.85;0.90;;;;;;;;;;5027135;28;21361;-69
2023/03/26 14:24:50;;;;;;;2.17;1.00;;;;;;;;;;5027832;28;20079;-71
2023/03/26 14:27:54;;;;;;;3.55;1.20;;;;;;;;;;5017412;28;20456;-70
2023/03/26 14:30:49;;;;;;;3.42;0.82;;;;;;;;;;5029156;28;20460;-69
2023/03/26 14:33:43;;;;;;;2.20;1.20;;;;;;;;;;5031396;28;20388;-75
2023/03/26 14:36:47;;;;;;;1.50;0.80;;;;;;;;;;5018148;28;20506;-65
2023/03/26 14:39:35;;;;;;;0.70;0.70;;;;;;;;;;5021426;28;20580;-67
2023/03/26 14:42:24;;;;;;;3.70;1.35;;;;;;;;;;5026570;28;20524;-65
2023/03/26 14:45:22;;;;;;;2.15;0.80;;;;;;;;;;5045253;28;20456;-68
2023/03/26 14:48:07;;;;;;;3.28;0.95;;;;;;;;;;5011319;28;20054;-68
2023/03/26 14:50:53;;;;;;;2.03;0.88;;;;;;;;;;5030212;28;20480;-67
2023/03/26 14:53:43;;;;;;;2.25;0.80;;;;;;;;;;5031171;28;20537;-74
2023/03/26 14:56:28;;;;;;;2.25;0.90;;;;;;;;;;5045162;28;20029;-74
2023/03/26 14:59:32;;;;;;;2.15;0.85;;;;;;;;;;5031519;28;20029;-74
2023/03/26 15:02:30;;;;;;;1.45;1.02;;;;;;;;;;5016580;28;20025;-74
2023/03/26 15:05:27;;;;;;;1.95;0.68;;;;;;;;;;5026448;28;20474;-74
2023/03/26 15:08:28;;;;;;;1.80;0.70;;;;;;;;;;5028520;28;20063;-73
2023/03/26 15:11:15;;;;;;;2.38;1.15;;;;;;;;;;5035110;28;20361;-71
2023/03/26 15:14:09;;;;;;;2.85;0.95;;;;;;;;;;5038038;28;20369;-72
2023/03/26 15:17:13;;;;;;;2.38;0.73;;;;;;;;;;5031335;28;20082;-72
2023/03/26 15:20:10;;;;;;;1.50;0.90;;;;;;;;;;5029061;28;20112;-73
2023/03/26 15:23:11;;;;;;;1.48;1.00;;;;;;;;;;5011063;28;20436;-73
2023/03/26 15:26:20;;;;;;;2.20;0.80;;;;;;;;;;5020945;28;20030;-72
2023/03/26 15:29:15;;;;;;;4.22;0.90;;;;;;;;;;5044133;28;20500;-69
2023/03/26 15:32:00;;;;;;;1.15;0.82;;;;;;;;;;5043867;28;20115;-67
2023/03/26 15:34:54;;;;;;;2.75;0.88;;;;;;;;;;5030361;28;20247;-68
2023/03/26 15:37:55;;;;;;;1.08;0.98;;;;;;;;;;5016941;28;20164;-70
2023/03/26 15:40:55;;;;;;;2.42;1.00;;;;;;;;;;5030768;28;20013;-68
2023/03/26 15:44:13;;;;;;;2.55;0.98;;;;;;;;;;5034086;28;20022;-69
2023/03/26 15:47:01;;;;;;;0.68;0.68;;;;;;;;;;5005414;28;20026;-77
2023/03/26 15:49:51;;;;;;;0.50;0.50;;;;;;;;;;5015509;28;20528;-67
2023/03/26 15:52:36;;;;;;;;;;;;;;;;;;5028913;28;20037;-69
2023/03/26 15:55:31;;;;;;;1.13;0.60;;;;;;;;;;5029562;28;20364;-68
2023/03/26 15:58:26;;;;;;;0.75;0.60;;;;;;;;;;5030041;28;20025;-68
2023/03/26 16:01:29;;;;;;;0.63;0.63;;;;;;;;;;5043353;28;20025;-70
2023/03/26 16:04:25;;;;;;;0.85;0.50;;;;;;;;;;5029576;28;20032;-77
2023/03/26 16:07:27;;;;;;;2.00;0.60;;;;;;;;;;5019482;28;20186;-71
2023/03/26 16:10:14;;;;;;;2.30;0.70;;;;;;;;;;5029708;28;20031;-72
2023/03/26 16:13:18;;;;;;;1.30;0.50;;;;;;;;;;5015618;28;20030;-72
2023/03/26 16:16:03;;;;;;;0.85;0.65;;;;;;;;;;5022916;28;20080;-72
2023/03/26 16:19:09;;;;;;;0.95;0.80;;;;;;;;;;5041361;28;20037;-71
2023/03/26 16:22:06;;;;;;;0.77;0.70;;;;;;;;;;4999573;28;20361;-73
2023/03/26 16:25:12;;;;;;;1.48;0.70;;;;;;;;;;5029407;28;20055;-73
2023/03/26 16:28:09;;;;;;;2.20;0.88;;;;;;;;;;5029919;28;20064;-77
2023/03/26 16:31:05;;;;;;;0.98;0.70;;;;;;;;;;5026381;28;20030;-74
2023/03/26 16:33:58;;;;;;;2.10;0.70;;;;;;;;;;5028369;28;20556;-73
2023/03/26 16:36:44;;;;;;;1.08;0.70;;;;;;;;;;5028853;28;20488;-74
2023/03/26 16:39:37;;;;;;;0.90;0.85;;;;;;;;;;5043353;28;20431;-74
2023/03/26 16:42:33;;;;;;;1.05;0.90;;;;;;;;;;5038488;28;20024;-77
2023/03/26 16:45:30;;;;;;;0.80;0.70;;;;;;;;;;5043199;28;20033;-74
2023/03/26 16:48:30;;;;;;;0.80;0.63;;;;;;;;;;5028957;28;20411;-72
2023/03/26 16:51:18;;;;;;;1.17;0.90;;;;;;;;;;5026986;28;20454;-72
2023/03/26 16:54:21;;;;;;;0.60;0.60;;;;;;;;;;5027673;28;20035;-74
2023/03/26 16:57:17;;;;;;;1.08;0.80;;;;;;;;;;5017919;28;20088;-72
2023/03/26 17:00:12;;;;;;;0.88;0.82;;;;;;;;;;5020307;28;20025;-77
2023/03/26 17:03:17;;;;;;;0.70;0.70;;;;;;;;;;5024731;28;20472;-73
2023/03/26 17:06:11;;;;;;;1.95;0.70;;;;;;;;;;5032910;28;20030;-73